Startpagina
METAR-TAF:

METAR-TAF

Vliegvelden :

Luchthaven Warschau Frédéric Chopin

Warschau, Polen

breedte: 52-10N, lengte: 020-58E, hoogte: 106 m

Actueel weer

Dit bericht is 19 minuten geleden gemaakt, om 04:30 UTC
Wind 4 kt uit het zuidzuidoosten, variërend tussen het oosten en het zuidzuidwesten
Temperatuur 12°C
Vochtigheid 94%
Druk 1018 hPa
Zicht 10 km of meer
geen wolken onder 1500 m en geen cumulonimbus

METAR: EPWA 190430Z 16004KT 100V200 CAVOK 12/11 Q1018 NOSIG

Tijdstip: 06:49 (04:49 UTC)

Verwachting

Dit bericht is 2 uur en het 19 minuten geleden gemaakt, om 02:30 UTC
Verwachting geldig van 19 om 03 UTC tot 20 om 03 UTC
Wind 5 kt uit het zuiden
Zicht 10 km of meer
geen wolken onder 1500 m en geen cumulonimbus

TAF: EPWA 190230Z 1903/2003 18005KT CAVOK

Waarnemingen en weersverwachtingen van meer dan 4000 vliegvelden (METAR en TAF).

De beschikbare stations zijn de gele en rode punten op de kaart.

Ga met uw muis naar het station om de naam te zien.

Klik dan om waarnemingen en weersverwachtingen te zien.

kaart wijzigen: klik op de groene knoppen met een zwart kruis om in te zoomen, op de groene knop met een streepje om uit te zoomen of op de groene pijlen voor aangrenzende kaarten.


METAR-TAF: